Airfield :
LOGIN :

Register | Disclaimer

   EN    FR    IT 

 










Legend :    VFR   Marginal VFR   IFR   Intensive IFR   Very Intensive IFR
Visi :
Ceiling :
>= 8 km
>= 3000ft
5 to 8 km
1000 to 3000 ft
1500m to 5 km
500 to 1000 ft
800 to 1500m
200 to 500 ft
< 800m
< 200 ft
Symbols :   Thunderstorms  Fog  Heavy snow  Heavy precipitations  Wind > 20 kt
SIGMETs :     Misc.  Thunderstorms  Icing  Turbulence  Mountain Waves  Volcanic Ashes







- Airport Elevation : 468 ft
- IATA code : GRO


LEGE - Girona Costa Brava

CURRENT METAR :
  • 221230Z 04003KT 9999 SCT040 22/13 Q1021

EXPIRED METARs :
  • 221200Z 06003KT 9999 FEW045 22/13 Q1021
  • 221130Z 05002KT 9999 FEW040 22/12 Q1021
  • 221100Z 01006KT 320V060 9999 FEW040 21/13 Q1021
  • 221030Z 04006KT 350V100 9999 SCT055 21/12 Q1021
  • 221000Z 01006KT 280V070 9999 FEW055 20/13 Q1021
  • 220930Z 02006KT 340V060 9999 FEW022 19/12 Q1021

TAF TAF LEGE
Valid from the 22 at 12:00 until the 23 at 12:00 UTC


221100Z 2212/2312 04010KT 9999 FEW040 TX21/2213Z TN09/2306Z
BECMG 2216/2219 VRB03KT
PROB40
TEMPO 2223/2307 2000 BR
No reported NOTAMs for that airfield.
1 SIGMET reported for the Barcelona FIR (LECB) :
 
Severe turbulence
LECB SIGMET 2 VALID 221200/221500 LEVA
LECB BARCELONA UIR SEV TURB FCST WI N3741 W00136 - N37 E00026 - N3540 W00203 - N3741 W00136 FL270/360 STNR NC=



MET'MAP, your aeronautical weather chart ! - Copyright ORBIFLY December 2007 - Disclaimer

ORBIFLY MET'MAP TEAM :

Programming & Development : Alexandra Zaïnal
Concept & Development : Baudouin d'Aumeries
Co-Development & Prog : Marc-Olivier Méhu
Technical & hardware support : Manuel Goepfert

Contact : metmap@orbifly.com




SOURCES & CREDITS :

   NOAA